Time;durP1;ratioP1;P1;durP2;ratioP2;P2;SDS_P1;SDS_P2;PMS_P1;PMS_P2;Temp;Humidity;BMP_temperature;BMP_pressure;BME280_temperature;BME280_humidity;BME280_pressure;Samples;Min_cycle;Max_cycle;Signal;HPM_P1;HPM_P2
2022/07/07 00:00:12;;;;;;;0.45;0.10;;;;;;;15.04;100.00;100718.03;7392044;19;20015;-84
2022/07/07 00:02:38;;;;;;;1.15;0.20;;;;;;;15.04;100.00;100732.03;7386605;19;20023;-84
2022/07/07 00:05:05;;;;;;;1.55;0.20;;;;;;;15.01;100.00;100724.59;7383267;19;20623;-85
2022/07/07 00:07:31;;;;;;;2.33;0.60;;;;;;;15.04;100.00;100723.63;7385489;19;20014;-86
2022/07/07 00:09:58;;;;;;;0.93;0.20;;;;;;;15.07;100.00;100722.63;7387392;19;20037;-85
2022/07/07 00:12:25;;;;;;;0.43;0.10;;;;;;;15.07;100.00;100735.91;7387278;19;20022;-85
2022/07/07 00:14:51;;;;;;;0.63;0.30;;;;;;;15.06;100.00;100739.97;7387293;19;20010;-85
2022/07/07 00:17:17;;;;;;;1.33;0.20;;;;;;;15.04;100.00;100729.25;7394729;19;20023;-84
2022/07/07 00:19:44;;;;;;;1.35;0.20;;;;;;;14.98;100.00;100762.03;7398791;19;20015;-85
2022/07/07 00:22:10;;;;;;;1.58;0.25;;;;;;;14.96;100.00;100749.75;7395449;19;20010;-84
2022/07/07 00:24:36;;;;;;;2.17;0.43;;;;;;;14.88;100.00;100756.97;7394054;19;20489;-84
2022/07/07 00:27:02;;;;;;;1.05;0.47;;;;;;;14.82;100.00;100761.72;7396142;19;20477;-84
2022/07/07 00:29:28;;;;;;;4.40;0.20;;;;;;;14.80;100.00;100770.63;7397072;19;20499;-84
2022/07/07 00:31:54;;;;;;;0.40;0.10;;;;;;;14.74;100.00;100766.97;7392426;19;20424;-84
2022/07/07 00:34:21;;;;;;;0.77;0.30;;;;;;;14.73;100.00;100764.63;7393956;19;20468;-84
2022/07/07 00:36:47;;;;;;;0.73;0.47;;;;;;;14.72;100.00;100775.09;7396078;19;20019;-84
2022/07/07 00:39:13;;;;;;;0.75;0.30;;;;;;;14.66;100.00;100791.00;7398020;19;20018;-84
2022/07/07 00:41:39;;;;;;;0.32;0.10;;;;;;;14.63;100.00;100800.41;7392133;19;20051;-83
2022/07/07 00:44:11;;;;;;;0.20;0.10;;;;;;;14.56;100.00;100805.59;7392423;19;20022;-82
2022/07/07 00:46:49;;;;;;;0.82;0.30;;;;;;;14.54;100.00;100803.28;7394894;19;20363;-85
2022/07/07 00:49:18;;;;;;;0.47;0.20;;;;;;;14.53;100.00;100801.72;7398457;19;20037;-87
2022/07/07 00:51:45;;;;;;;0.65;0.43;;;;;;;14.47;100.00;100798.03;7395923;19;20019;-85
2022/07/07 00:54:11;;;;;;;0.63;0.17;;;;;;;14.46;100.00;100798.50;7396728;19;20038;-86
2022/07/07 00:56:38;;;;;;;3.20;0.30;;;;;;;14.40;100.00;100795.63;7398226;19;20019;-86
2022/07/07 00:59:08;;;;;;;1.05;0.10;;;;;;;14.38;100.00;100795.28;7398448;19;20492;-83
2022/07/07 01:01:37;;;;;;;3.80;0.43;;;;;;;14.37;100.00;100788.16;7391556;19;20038;-85
2022/07/07 01:04:07;;;;;;;0.22;0.10;;;;;;;14.36;100.00;100797.78;7397112;19;20015;-86
2022/07/07 01:06:33;;;;;;;0.20;0.10;;;;;;;14.31;100.00;100788.03;7397230;19;20014;-86
2022/07/07 01:09:00;;;;;;;2.05;0.40;;;;;;;14.28;100.00;100805.78;7397473;19;20018;-86
2022/07/07 01:11:26;;;;;;;2.90;0.25;;;;;;;14.23;100.00;100805.66;7397411;19;20011;-87
2022/07/07 01:13:52;;;;;;;0.73;0.40;;;;;;;14.27;100.00;100809.06;7398890;19;20663;-86
2022/07/07 01:16:18;;;;;;;0.20;0.10;;;;;;;14.22;100.00;100818.91;7396376;19;20007;-87
2022/07/07 01:18:44;;;;;;;1.25;0.47;;;;;;;14.26;100.00;100827.13;7397951;19;20078;-85
2022/07/07 01:21:13;;;;;;;0.20;0.20;;;;;;;14.31;100.00;100829.31;7395228;19;20022;-85
2022/07/07 01:23:40;;;;;;;2.13;0.38;;;;;;;14.21;100.00;100830.56;7398153;19;20039;-86
2022/07/07 01:26:06;;;;;;;0.15;0.10;;;;;;;14.17;100.00;100827.16;7397093;19;20018;-87
2022/07/07 01:28:33;;;;;;;4.57;0.65;;;;;;;14.13;100.00;100829.38;7395325;19;20018;-86
2022/07/07 01:30:59;;;;;;;5.50;0.47;;;;;;;14.10;100.00;100833.91;7396653;19;20038;-87
2022/07/07 01:33:25;;;;;;;6.25;0.30;;;;;;;14.07;100.00;100832.06;7395980;19;20018;-86
2022/07/07 01:35:51;;;;;;;1.45;0.40;;;;;;;14.08;100.00;100841.22;7398187;19;20414;-86
2022/07/07 01:38:18;;;;;;;0.10;0.10;;;;;;;14.03;100.00;100836.28;7395496;19;20014;-85
2022/07/07 01:40:44;;;;;;;1.80;0.93;;;;;;;14.00;100.00;100832.41;7394600;19;20049;-86
2022/07/07 01:43:10;;;;;;;1.00;0.25;;;;;;;13.95;100.00;100835.06;7396139;19;20015;-87
2022/07/07 01:45:36;;;;;;;3.65;0.70;;;;;;;13.90;100.00;100838.53;7393609;19;20031;-86
2022/07/07 01:48:06;;;;;;;0.10;0.08;;;;;;;13.86;100.00;100837.94;7395685;19;20015;-86
2022/07/07 01:50:32;;;;;;;0.57;0.30;;;;;;;13.85;100.00;100847.59;7401705;19;20054;-86
2022/07/07 01:52:58;;;;;;;0.30;0.30;;;;;;;13.83;100.00;100850.09;7396067;19;20035;-86
2022/07/07 01:55:24;;;;;;;1.13;0.50;;;;;;;13.82;100.00;100854.16;7395527;19;20015;-86
2022/07/07 01:57:51;;;;;;;1.85;0.30;;;;;;;13.82;100.00;100859.75;7396744;19;20018;-86
2022/07/07 02:00:17;;;;;;;15.77;0.63;;;;;;;13.78;100.00;100854.31;7398322;19;20021;-87
2022/07/07 02:02:43;;;;;;;2.03;0.43;;;;;;;13.76;100.00;100858.81;7394885;19;20036;-85
2022/07/07 02:05:09;;;;;;;1.88;0.20;;;;;;;13.74;100.00;100864.13;7391503;19;20018;-86
2022/07/07 02:07:35;;;;;;;0.25;0.20;;;;;;;13.73;100.00;100856.97;7394628;19;20022;-86
2022/07/07 02:10:03;;;;;;;0.43;0.20;;;;;;;13.74;100.00;100864.13;7397714;19;20002;-86
2022/07/07 02:12:30;;;;;;;12.13;1.83;;;;;;;13.72;100.00;100869.41;7397898;19;20038;-85
2022/07/07 02:14:57;;;;;;;4.25;0.40;;;;;;;13.74;100.00;100869.72;7391733;19;20025;-84
2022/07/07 02:17:23;;;;;;;0.75;0.20;;;;;;;13.72;100.00;100866.63;7393830;19;20022;-86
2022/07/07 02:19:50;;;;;;;0.20;0.20;;;;;;;13.72;100.00;100866.63;7396671;19;20015;-86
2022/07/07 02:22:16;;;;;;;1.23;0.20;;;;;;;13.70;100.00;100858.69;7395272;19;20011;-85
2022/07/07 02:24:42;;;;;;;0.68;0.30;;;;;;;13.67;100.00;100866.00;7392916;19;20595;-85
2022/07/07 02:27:08;;;;;;;1.25;0.30;;;;;;;13.74;100.00;100870.50;7393051;19;20014;-85
2022/07/07 02:29:34;;;;;;;0.20;0.20;;;;;;;13.73;100.00;100868.94;7397048;19;20375;-85
2022/07/07 02:32:01;;;;;;;1.88;0.30;;;;;;;13.74;100.00;100872.50;7392209;19;20124;-84
2022/07/07 02:34:28;;;;;;;0.15;0.13;;;;;;;13.74;100.00;100875.31;7391882;19;20018;-84
2022/07/07 02:36:54;;;;;;;0.63;0.20;;;;;;;13.71;100.00;100874.22;7392470;19;20015;-85
2022/07/07 02:39:21;;;;;;;0.22;0.22;;;;;;;13.72;100.00;100877.81;7394428;19;20014;-85
2022/07/07 02:41:47;;;;;;;0.20;0.17;;;;;;;13.72;100.00;100883.41;7390899;19;20010;-84
2022/07/07 02:44:13;;;;;;;0.30;0.25;;;;;;;13.67;100.00;100882.81;7391188;19;20099;-85
2022/07/07 02:46:39;;;;;;;0.10;0.10;;;;;;;13.66;100.00;100886.09;7394014;19;20483;-84
2022/07/07 02:49:05;;;;;;;0.20;0.17;;;;;;;13.64;100.00;100880.94;7396116;19;20467;-85
2022/07/07 02:51:32;;;;;;;4.90;0.20;;;;;;;13.62;100.00;100891.09;7394368;19;20108;-85
2022/07/07 02:53:59;;;;;;;5.40;0.35;;;;;;;13.60;100.00;100883.13;7393375;19;20014;-85
2022/07/07 02:56:25;;;;;;;1.20;0.10;;;;;;;13.61;100.00;100895.91;7392333;19;20019;-84
2022/07/07 02:58:51;;;;;;;2.67;0.15;;;;;;;13.60;100.00;100899.94;7392007;19;20010;-84
2022/07/07 03:01:17;;;;;;;0.32;0.28;;;;;;;13.58;100.00;100913.63;7388500;19;20022;-85
2022/07/07 03:03:44;;;;;;;0.82;0.22;;;;;;;13.59;100.00;100920.00;7390660;19;20369;-84
2022/07/07 03:06:10;;;;;;;1.45;0.50;;;;;;;13.59;100.00;100915.19;7396551;19;20011;-84
2022/07/07 03:08:36;;;;;;;1.65;0.75;;;;;;;13.57;100.00;100895.28;7390760;19;20016;-84
2022/07/07 03:11:03;;;;;;;2.92;0.43;;;;;;;13.57;100.00;100897.31;7390247;19;20008;-84
2022/07/07 03:13:29;;;;;;;2.30;0.85;;;;;;;13.55;100.00;100897.78;7395108;19;20014;-85
2022/07/07 03:15:55;;;;;;;0.95;0.30;;;;;;;13.55;100.00;100908.97;7389013;19;20018;-84
2022/07/07 03:18:21;;;;;;;0.50;0.30;;;;;;;13.50;100.00;100911.63;7388670;19;20015;-83
2022/07/07 03:20:48;;;;;;;1.77;0.25;;;;;;;13.47;100.00;100902.13;7391065;19;20019;-84
2022/07/07 03:23:14;;;;;;;0.20;0.10;;;;;;;13.46;100.00;100909.00;7390808;19;20043;-84
2022/07/07 03:25:40;;;;;;;1.65;0.13;;;;;;;13.47;100.00;100910.53;7389146;19;20019;-84
2022/07/07 03:28:06;;;;;;;1.75;0.15;;;;;;;13.47;100.00;100906.97;7390830;19;20352;-84
2022/07/07 03:30:32;;;;;;;3.83;0.20;;;;;;;13.46;100.00;100913.81;7395900;19;20026;-84
2022/07/07 03:32:58;;;;;;;0.75;0.32;;;;;;;13.46;100.00;100911.78;7389575;19;20029;-84
2022/07/07 03:35:25;;;;;;;2.20;1.10;;;;;;;13.49;100.00;100894.06;7388736;19;20022;-84
2022/07/07 03:37:51;;;;;;;2.65;0.20;;;;;;;13.52;100.00;100897.94;7388308;19;20007;-83
2022/07/07 03:40:17;;;;;;;0.10;0.00;;;;;;;13.49;100.00;100893.28;7390036;19;20728;-81
2022/07/07 03:42:43;;;;;;;0.47;0.20;;;;;;;13.49;100.00;100882.84;7389015;19;20018;-83
2022/07/07 03:45:10;;;;;;;0.52;0.20;;;;;;;13.46;100.00;100878.22;7386724;19;20018;-84
2022/07/07 03:47:36;;;;;;;0.57;0.30;;;;;;;13.47;100.00;100890.94;7388797;19;20037;-83
2022/07/07 03:50:02;;;;;;;3.72;0.30;;;;;;;13.44;100.00;100897.50;7392772;19;20010;-83
2022/07/07 03:52:29;;;;;;;0.63;0.35;;;;;;;13.42;100.00;100902.00;7395383;19;20014;-84
2022/07/07 03:54:55;;;;;;;0.32;0.20;;;;;;;13.42;100.00;100905.59;7394209;19;20046;-83
2022/07/07 03:57:21;;;;;;;2.65;0.40;;;;;;;13.41;100.00;100915.22;7393663;19;20018;-82
2022/07/07 03:59:47;;;;;;;5.53;0.70;;;;;;;13.42;100.00;100900.00;7396998;19;20018;-84
2022/07/07 04:02:13;;;;;;;0.88;0.38;;;;;;;13.41;100.00;100892.84;7394113;19;20018;-84
2022/07/07 04:04:40;;;;;;;1.45;0.55;;;;;;;13.37;100.00;100886.63;7397743;19;20049;-83
2022/07/07 04:07:06;;;;;;;2.92;0.50;;;;;;;13.37;100.00;100909.00;7394193;19;20019;-83
2022/07/07 04:09:32;;;;;;;0.50;0.10;;;;;;;13.42;100.00;100930.00;7395722;19;20447;-83
2022/07/07 04:11:58;;;;;;;0.75;0.20;;;;;;;13.46;100.00;100950.97;7396451;19;20010;-83
2022/07/07 04:14:24;;;;;;;9.52;0.60;;;;;;;13.46;100.00;100950.97;7392225;19;20090;-83
2022/07/07 04:16:50;;;;;;;3.50;0.43;;;;;;;13.48;100.00;100961.69;7395134;19;20693;-83
2022/07/07 04:19:16;;;;;;;0.85;0.50;;;;;;;13.50;100.00;100965.56;7395348;19;20014;-82
2022/07/07 04:21:43;;;;;;;0.10;0.10;;;;;;;13.58;100.00;100963.22;7392044;19;20034;-83
2022/07/07 04:24:09;;;;;;;2.47;0.38;;;;;;;13.57;100.00;100962.47;7391721;19;20127;-84
2022/07/07 04:26:35;;;;;;;2.33;0.50;;;;;;;13.61;100.00;100963.06;7393069;19;20015;-83
2022/07/07 04:29:02;;;;;;;7.43;0.47;;;;;;;13.64;100.00;100959.31;7396320;19;20014;-83
2022/07/07 04:31:28;;;;;;;2.72;0.57;;;;;;;13.66;100.00;100975.66;7393607;19;20014;-83
2022/07/07 04:33:54;;;;;;;0.20;0.20;;;;;;;13.65;100.00;100980.47;7391664;19;20086;-83
2022/07/07 04:36:20;;;;;;;1.50;0.35;;;;;;;13.64;100.00;100978.91;7395213;19;20010;-83
2022/07/07 04:38:46;;;;;;;1.48;0.22;;;;;;;13.65;100.00;100983.28;7394145;19;20507;-83
2022/07/07 04:41:13;;;;;;;0.50;0.30;;;;;;;13.65;100.00;100979.69;7392957;19;20018;-83
2022/07/07 04:43:39;;;;;;;0.95;0.45;;;;;;;13.66;100.00;100979.22;7393391;19;20041;-83
2022/07/07 04:46:05;;;;;;;8.88;0.65;;;;;;;13.68;100.00;100987.94;7391515;19;20025;-83
2022/07/07 04:48:32;;;;;;;9.27;1.55;;;;;;;13.71;100.00;100988.25;7390409;19;20014;-83
2022/07/07 04:50:58;;;;;;;3.60;0.57;;;;;;;13.72;100.00;100996.19;7391713;19;20090;-83
2022/07/07 04:53:24;;;;;;;1.02;0.40;;;;;;;13.73;100.00;101000.50;7392650;19;20041;-83
2022/07/07 04:55:50;;;;;;;5.78;0.63;;;;;;;13.74;100.00;101004.09;7392036;19;20666;-83
2022/07/07 04:58:16;;;;;;;0.63;0.22;;;;;;;13.75;100.00;101008.47;7392144;19;20476;-83
2022/07/07 05:00:42;;;;;;;0.40;0.40;;;;;;;13.74;100.00;101023.69;7389371;19;20022;-83
2022/07/07 05:03:08;;;;;;;0.30;0.30;;;;;;;13.72;100.00;101024.16;7394116;19;20039;-83
2022/07/07 05:05:35;;;;;;;5.82;0.70;;;;;;;13.73;100.00;101024.97;7384896;19;20029;-83
2022/07/07 05:08:01;;;;;;;8.13;0.73;;;;;;;13.73;100.00;101030.56;7392930;19;20014;-83
2022/07/07 05:10:27;;;;;;;0.35;0.30;;;;;;;13.75;100.00;101034.44;7395780;19;20536;-82
2022/07/07 05:12:53;;;;;;;2.20;0.20;;;;;;;13.78;100.00;101032.72;7392542;19;20022;-83
2022/07/07 05:15:19;;;;;;;0.40;0.28;;;;;;;13.79;100.00;101035.06;7391333;19;20769;-83
2022/07/07 05:17:45;;;;;;;0.20;0.10;;;;;;;13.80;100.00;101041.41;7392847;19;20337;-83
2022/07/07 05:20:11;;;;;;;0.60;0.32;;;;;;;13.81;100.00;101042.97;7396779;19;20014;-84
2022/07/07 05:22:38;;;;;;;3.63;0.57;;;;;;;13.83;100.00;101054.47;7392382;19;20014;-84
2022/07/07 05:25:04;;;;;;;0.20;0.10;;;;;;;13.85;100.00;101054.78;7393857;19;20006;-86
2022/07/07 05:27:31;;;;;;;0.20;0.20;;;;;;;13.88;100.00;101059.47;7393633;19;20094;-84
2022/07/07 05:29:57;;;;;;;2.92;0.30;;;;;;;13.89;100.00;101075.00;7398929;19;20333;-85
2022/07/07 05:32:23;;;;;;;1.15;0.15;;;;;;;13.89;100.00;101072.22;7393541;19;20777;-84
2022/07/07 05:34:49;;;;;;;2.40;0.38;;;;;;;13.92;100.00;101082.47;7393769;19;20037;-85
2022/07/07 05:37:15;;;;;;;3.13;0.43;;;;;;;13.92;100.00;101082.47;7396652;19;20022;-85
2022/07/07 05:39:41;;;;;;;0.45;0.20;;;;;;;13.93;100.00;101075.63;7396329;19;20027;-84
2022/07/07 05:42:08;;;;;;;0.43;0.30;;;;;;;13.97;100.00;101073.47;7394817;19;20330;-84
2022/07/07 05:44:34;;;;;;;1.10;0.20;;;;;;;14.01;100.00;101074.81;7390221;19;20779;-84
2022/07/07 05:47:00;;;;;;;0.80;0.20;;;;;;;14.01;100.00;101074.06;7391094;19;20029;-82
2022/07/07 05:49:26;;;;;;;1.13;0.25;;;;;;;14.04;100.00;101078.72;7391269;19;20817;-83
2022/07/07 05:51:53;;;;;;;2.92;0.17;;;;;;;14.03;100.00;101088.38;7388447;19;20421;-83
2022/07/07 05:54:19;;;;;;;1.20;0.40;;;;;;;14.05;100.00;101088.69;7389349;19;20018;-83
2022/07/07 05:56:45;;;;;;;3.92;0.30;;;;;;;14.07;100.00;101094.59;7389974;19;20042;-83
2022/07/07 05:59:11;;;;;;;0.93;0.20;;;;;;;14.11;100.00;101098.78;7391243;19;20017;-83
2022/07/07 06:01:37;;;;;;;0.98;0.25;;;;;;;14.16;100.00;101097.38;7387756;19;20022;-82
2022/07/07 06:04:04;;;;;;;0.40;0.40;;;;;;;14.18;100.00;101103.28;7388782;19;20037;-82
2022/07/07 06:06:30;;;;;;;0.85;0.38;;;;;;;14.20;100.00;101104.38;7390459;19;20029;-83
2022/07/07 06:08:56;;;;;;;0.40;0.10;;;;;;;14.22;100.00;101103.91;7391504;19;20006;-82
2022/07/07 06:11:22;;;;;;;0.38;0.08;;;;;;;14.23;100.00;101109.03;7402599;19;20027;-83
2022/07/07 06:13:48;;;;;;;0.43;0.20;;;;;;;14.27;100.00;101114.50;7404672;19;20018;-82
2022/07/07 06:16:14;;;;;;;8.88;1.23;;;;;;;14.28;100.00;101110.41;7393673;19;20018;-82
2022/07/07 06:18:40;;;;;;;2.05;0.63;;;;;;;14.34;100.00;101119.78;7389556;19;20019;-83
2022/07/07 06:21:07;;;;;;;0.90;0.32;;;;;;;14.37;100.00;101111.22;7386985;19;20085;-84
2022/07/07 06:23:33;;;;;;;1.10;0.47;;;;;;;14.43;100.00;101122.56;7389595;19;20050;-83
2022/07/07 06:26:02;;;;;;;0.47;0.47;;;;;;;14.50;100.00;101129.84;7390848;19;20011;-84
2022/07/07 06:28:29;;;;;;;4.75;0.20;;;;;;;14.52;100.00;101132.97;7395422;19;20026;-84
2022/07/07 06:30:55;;;;;;;4.60;0.40;;;;;;;14.57;100.00;101133.13;7392803;19;20341;-84
2022/07/07 06:33:21;;;;;;;0.10;0.10;;;;;;;14.63;100.00;101147.25;7391134;19;20018;-84
2022/07/07 06:35:47;;;;;;;0.98;0.47;;;;;;;14.71;100.00;101152.06;7392658;19;20064;-84
2022/07/07 06:38:13;;;;;;;0.47;0.20;;;;;;;14.75;100.00;101147.06;7391200;19;20011;-84
2022/07/07 06:40:39;;;;;;;0.40;0.20;;;;;;;14.79;100.00;101155.31;7392919;19;20066;-84
2022/07/07 06:43:06;;;;;;;0.15;0.03;;;;;;;14.80;100.00;101168.88;7391920;19;20022;-84
2022/07/07 06:45:33;;;;;;;0.73;0.10;;;;;;;14.80;100.00;101157.66;7388932;19;20010;-84
2022/07/07 06:47:59;;;;;;;6.38;0.47;;;;;;;14.80;100.00;101157.66;7389026;19;20022;-84
2022/07/07 06:50:25;;;;;;;0.52;0.20;;;;;;;14.81;100.00;101158.44;7393189;19;20656;-84
2022/07/07 06:52:51;;;;;;;2.92;0.40;;;;;;;14.78;100.00;101165.75;7386753;19;20014;-83
2022/07/07 06:55:18;;;;;;;3.58;0.35;;;;;;;14.76;100.00;101167.47;7383796;19;20025;-83
2022/07/07 06:57:44;;;;;;;2.42;0.10;;;;;;;14.74;100.00;101170.75;7386305;19;20030;-84
2022/07/07 07:00:11;;;;;;;9.93;0.28;;;;;;;14.76;100.00;101173.88;7392587;19;20492;-84
2022/07/07 07:02:43;;;;;;;3.92;0.30;;;;;;;14.78;100.00;101176.19;7389783;19;20082;-83
2022/07/07 07:05:10;;;;;;;0.10;0.00;;;;;;;14.83;100.00;101173.53;7387782;19;20019;-83
2022/07/07 07:07:36;;;;;;;0.10;0.10;;;;;;;14.86;100.00;101178.19;7388423;19;20037;-83
2022/07/07 07:10:03;;;;;;;0.20;0.20;;;;;;;14.90;100.00;101173.19;7392886;19;20018;-80
2022/07/07 07:12:31;;;;;;;1.02;0.45;;;;;;;14.90;100.00;101173.19;7386197;19;20373;-86
2022/07/07 07:14:57;;;;;;;1.05;0.47;;;;;;;14.94;100.00;101178.63;7385826;19;20018;-84
2022/07/07 07:17:24;;;;;;;0.17;0.10;;;;;;;14.98;100.00;101180.03;7391182;19;20030;-84
2022/07/07 07:19:50;;;;;;;0.63;0.40;;;;;;;14.99;100.00;101175.94;7392546;19;20023;-84
2022/07/07 07:22:17;;;;;;;0.30;0.10;;;;;;;15.01;100.00;101179.06;7387645;19;20015;-83
2022/07/07 07:24:44;;;;;;;0.75;0.20;;;;;;;15.05;100.00;101190.13;7388674;19;20014;-84
2022/07/07 07:27:10;;;;;;;9.43;0.30;;;;;;;15.05;100.00;101188.06;7396938;19;20032;-85
2022/07/07 07:29:36;;;;;;;0.10;0.05;;;;;;;15.07;100.00;101184.81;7399925;19;20013;-85
2022/07/07 07:32:02;;;;;;;3.00;0.10;;;;;;;15.09;100.00;101191.50;7405897;19;20337;-90
2022/07/07 07:34:29;;;;;;;0.32;0.10;;;;;;;15.07;100.00;101193.25;7403852;19;20044;-89
2022/07/07 07:36:55;;;;;;;3.30;0.10;;;;;;;15.07;100.00;101194.00;7403459;19;20030;-88
2022/07/07 07:39:21;;;;;;;0.63;0.20;;;;;;;15.13;100.00;101192.13;7404912;19;20014;-86
2022/07/07 07:41:47;;;;;;;1.98;0.20;;;;;;;15.22;100.00;101198.94;7401055;19;20003;-87
2022/07/07 07:45:09;;;;;;;0.38;0.15;;;;;;;15.28;100.00;101197.03;7402262;19;20461;-87
2022/07/07 07:46:59;;;;;;;0.32;0.00;;;;;;;15.35;100.00;101196.69;7405524;19;20014;-87
2022/07/07 07:49:25;;;;;;;0.30;0.13;;;;;;;15.39;100.00;101203.69;7406149;19;20354;-87
2022/07/07 07:51:51;;;;;;;1.17;0.22;;;;;;;15.40;100.00;101201.66;7403801;19;20018;-84
2022/07/07 07:54:18;;;;;;;0.10;0.10;;;;;;;15.45;100.00;101201.81;7399816;19;20010;-85
2022/07/07 07:56:44;;;;;;;0.95;0.50;;;;;;;15.52;100.00;101209.09;7399971;19;20568;-85
2022/07/07 07:59:10;;;;;;;1.25;0.03;;;;;;;15.57;100.00;101208.44;7408341;19;20026;-85
2022/07/07 08:01:36;;;;;;;0.35;0.20;;;;;;;15.59;100.00;101217.94;7411715;19;20055;-87
2022/07/07 08:04:02;;;;;;;0.35;0.10;;;;;;;15.60;100.00;101215.91;7401603;19;20045;-87
2022/07/07 08:06:28;;;;;;;1.95;0.22;;;;;;;15.61;100.00;101214.66;7407818;19;20027;-87
2022/07/07 08:08:55;;;;;;;0.75;0.47;;;;;;;15.68;100.00;101222.75;7403163;19;20661;-87
2022/07/07 08:11:21;;;;;;;0.20;0.00;;;;;;;15.72;100.00;101226.91;7401834;19;20458;-87
2022/07/07 08:13:47;;;;;;;1.27;0.20;;;;;;;15.73;100.00;101222.84;7401267;19;20018;-87
2022/07/07 08:16:13;;;;;;;2.00;0.20;;;;;;;15.77;100.00;101228.28;7401819;19;20011;-86
2022/07/07 08:18:39;;;;;;;1.20;0.20;;;;;;;15.80;100.00;101222.50;7400191;19;20010;-86
2022/07/07 08:21:05;;;;;;;3.42;0.22;;;;;;;15.85;100.00;101226.69;7398773;19;20022;-86
2022/07/07 08:23:31;;;;;;;0.68;0.28;;;;;;;15.88;100.00;101228.50;7400934;19;20011;-85
2022/07/07 08:25:58;;;;;;;3.03;0.35;;;;;;;15.95;100.00;101225.34;7400870;19;20006;-85
2022/07/07 08:28:24;;;;;;;0.50;0.20;;;;;;;16.03;100.00;101234.97;7405357;19;20078;-85
2022/07/07 08:30:50;;;;;;;0.70;0.10;;;;;;;16.10;100.00;101236.63;7403452;19;20015;-87
2022/07/07 08:33:16;;;;;;;3.92;0.60;;;;;;;16.13;100.00;101239.28;7403598;19;20460;-86
2022/07/07 08:35:42;;;;;;;0.10;0.00;;;;;;;16.16;100.00;101243.91;7397725;19;20013;-85
2022/07/07 08:38:09;;;;;;;0.10;0.10;;;;;;;16.24;100.00;101239.47;7403336;19;20018;-86
2022/07/07 08:40:36;;;;;;;0.43;0.13;;;;;;;16.34;100.00;101243.78;7402631;19;20035;-86
2022/07/07 08:43:02;;;;;;;0.10;0.10;;;;;;;16.39;100.00;101240.31;7400396;19;20339;-85
2022/07/07 08:45:32;;;;;;;2.60;0.38;;;;;;;16.42;100.00;101244.94;7399305;19;20015;-86
2022/07/07 08:47:59;;;;;;;0.43;0.15;;;;;;;16.46;100.00;101251.16;7400357;19;20044;-86
2022/07/07 08:50:26;;;;;;;2.88;0.25;;;;;;;16.58;100.00;101252.97;7401370;19;20018;-84
2022/07/07 08:52:54;;;;;;;2.35;0.15;;;;;;;16.64;100.00;101259.47;7400389;19;20022;-86
2022/07/07 08:55:22;;;;;;;1.00;0.25;;;;;;;16.71;100.00;101254.72;7401725;19;20479;-86
2022/07/07 08:57:51;;;;;;;0.43;0.20;;;;;;;16.76;100.00;101263.25;7404368;19;20019;-85
2022/07/07 09:00:18;;;;;;;0.10;0.00;;;;;;;16.82;100.00;101260.53;7404404;19;20356;-88
2022/07/07 09:02:45;;;;;;;0.05;0.03;;;;;;;16.93;100.00;101263.56;7404195;19;20011;-86
2022/07/07 09:05:12;;;;;;;0.65;0.10;;;;;;;17.01;100.00;101261.88;7399487;19;20029;-86
2022/07/07 09:07:49;;;;;;;2.42;0.32;;;;;;;17.10;100.00;101267.41;7399656;19;20402;-86
2022/07/07 09:10:29;;;;;;;0.30;0.13;;;;;;;17.22;100.00;101272.75;7405047;19;20051;-86
2022/07/07 09:12:56;;;;;;;1.05;0.20;;;;;;;17.32;100.00;101267.78;7397407;19;20042;-86
2022/07/07 09:15:22;;;;;;;3.50;0.20;;;;;;;17.37;100.00;101265.06;7397879;19;20007;-86
2022/07/07 09:17:49;;;;;;;2.58;0.25;;;;;;;17.42;100.00;101274.84;7400844;19;20017;-86
2022/07/07 09:20:16;;;;;;;0.50;0.22;;;;;;;17.49;100.00;101268.81;7400675;19;20042;-85
2022/07/07 09:23:00;;;;;;;0.40;0.20;;;;;;;17.63;100.00;101279.28;7397505;19;20155;-86
2022/07/07 09:25:27;;;;;;;0.30;0.10;;;;;;;17.62;100.00;101272.13;7399188;19;20021;-87
2022/07/07 09:28:00;;;;;;;0.57;0.20;;;;;;;17.53;100.00;101282.72;7399844;19;20014;-86
2022/07/07 09:30:37;;;;;;;1.15;0.08;;;;;;;17.46;100.00;101286.69;7403159;19;20037;-86
2022/07/07 09:33:07;;;;;;;0.10;0.10;;;;;;;17.45;100.00;101293.59;7400160;19;20025;-86
2022/07/07 09:38:22;;;;;;;0.28;0.17;;;;;;;17.57;100.00;101292.53;7397514;19;20019;-85
2022/07/07 09:41:12;;;;;;;0.45;0.45;;;;;;;17.71;100.00;101294.53;7398117;19;20545;-86
2022/07/07 09:43:51;;;;;;;0.10;0.00;;;;;;;17.77;100.00;101295.41;7396582;19;20020;-86
2022/07/07 09:46:19;;;;;;;0.30;0.00;;;;;;;17.83;100.00;101304.69;7401173;19;20392;-88
2022/07/07 09:48:57;;;;;;;0.15;0.03;;;;;;;17.90;100.00;101298.66;7400182;19;20045;-86
2022/07/07 09:51:33;;;;;;;1.75;0.20;;;;;;;17.98;100.00;101299.78;7398680;19;20019;-86
2022/07/07 09:54:05;;;;;;;0.10;0.00;;;;;;;18.17;100.00;101289.78;7400452;19;20094;-87
2022/07/07 09:56:45;;;;;;;0.35;0.15;;;;;;;18.39;100.00;101294.13;7397510;19;20029;-88
2022/07/07 09:59:22;;;;;;;0.00;0.00;;;;;;;18.57;100.00;101299.53;7398942;19;20077;-86
2022/07/07 10:01:48;;;;;;;1.60;0.55;;;;;;;18.71;100.00;101296.59;7394889;19;20085;-86
2022/07/07 10:04:19;;;;;;;2.72;0.20;;;;;;;18.90;100.00;101305.53;7395458;19;20018;-85
2022/07/07 10:06:45;;;;;;;1.35;0.20;;;;;;;19.02;100.00;101295.88;7397912;19;20014;-86
2022/07/07 10:09:25;;;;;;;0.88;0.10;;;;;;;19.16;100.00;101295.00;7399282;19;20019;-84
2022/07/07 10:11:53;;;;;;;0.38;0.10;;;;;;;19.24;100.00;101290.44;7399471;19;20018;-86
2022/07/07 10:14:43;;;;;;;0.32;0.17;;;;;;;19.52;100.00;101299.16;7396751;19;20018;-86
2022/07/07 10:17:11;;;;;;;0.87;0.20;;;;;;;19.68;100.00;101292.84;7399467;19;20010;-89
2022/07/07 10:19:38;;;;;;;0.17;0.10;;;;;;;19.75;100.00;101300.09;7401153;19;20010;-90
2022/07/07 10:22:05;;;;;;;0.20;0.17;;;;;;;19.80;100.00;101296.50;7397543;19;20014;-92
2022/07/07 10:24:33;;;;;;;2.25;0.20;;;;;;;19.77;100.00;101294.72;7408891;19;20011;-87
2022/07/07 10:27:01;;;;;;;0.70;0.10;;;;;;;19.73;100.00;101302.66;7417348;19;20010;-89
2022/07/07 10:29:50;;;;;;;4.40;0.10;;;;;;;19.53;100.00;101301.47;7415386;19;20011;-82
2022/07/07 10:32:37;;;;;;;3.30;0.22;;;;;;;19.36;100.00;101309.03;7402017;19;20015;-90
2022/07/07 10:35:12;;;;;;;0.43;0.10;;;;;;;19.51;100.00;101320.97;7392522;19;20796;-91
2022/07/07 10:37:44;;;;;;;0.20;0.00;;;;;;;19.59;100.00;101326.97;7400044;19;20747;-90
2022/07/07 10:40:18;;;;;;;1.10;0.13;;;;;;;19.40;100.00;101315.25;7402016;19;20433;-89
2022/07/07 10:42:54;;;;;;;7.70;0.10;;;;;;;19.22;100.00;101321.22;7404069;19;20018;-91
2022/07/07 10:45:22;;;;;;;4.93;0.55;;;;;;;18.99;100.00;101319.47;7394355;19;20010;-89
2022/07/07 10:47:48;;;;;;;0.10;0.00;;;;;;;18.83;100.00;101325.72;7401050;19;20026;-89
2022/07/07 10:50:29;;;;;;;0.95;0.10;;;;;;;19.40;100.00;101332.22;7401556;19;20018;-89
2022/07/07 10:52:57;;;;;;;0.68;0.10;;;;;;;20.13;100.00;101339.13;7401861;19;20042;-89
2022/07/07 10:55:52;;;;;;;0.20;0.10;;;;;;;20.44;100.00;101339.06;7396575;19;20360;-83
2022/07/07 10:58:55;;;;;;;0.63;0.10;;;;;;;20.63;100.00;101351.47;7399722;19;19998;-87
2022/07/07 11:01:29;;;;;;;0.38;0.08;;;;;;;20.62;100.00;101349.91;7397416;19;20029;-85
2022/07/07 11:03:56;;;;;;;0.38;0.10;;;;;;;20.50;100.00;101348.34;7386788;19;20635;-85
2022/07/07 11:06:23;;;;;;;0.45;0.20;;;;;;;20.50;100.00;101354.00;7394844;19;20018;-85
2022/07/07 11:08:57;;;;;;;3.20;0.43;;;;;;;20.34;100.00;101363.97;7392926;19;20007;-85
2022/07/07 11:11:24;;;;;;;0.60;0.10;;;;;;;20.27;100.00;101367.25;7395465;19;20479;-86
2022/07/07 11:14:05;;;;;;;4.13;0.30;;;;;;;20.39;100.00;101359.63;7394641;19;20015;-85
2022/07/07 11:16:31;;;;;;;1.75;0.10;;;;;;;20.18;100.00;101350.47;7392285;19;20479;-85
2022/07/07 11:19:00;;;;;;;0.57;0.38;;;;;;;19.97;100.00;101356.75;7393529;19;20010;-85
2022/07/07 11:21:44;;;;;;;0.43;0.10;;;;;;;20.22;100.00;101351.06;7387667;19;20785;-84